METAR AND TAF INFORMATION
METAR FOR EBFN
ADDS - METARS form results

(0835 UTC 25 January 2022)
Data provider http://aviationweather.gov/metar/data/
 
METAR text: EBFN 250825Z 09003KT 1300 BR SCT003 BKN020 M01/M01 Q1034 AMB AMB TEMPO RED
Conditions at: EBFN (KOKSIJDE (BEL-AF, BE) observed 0825 UTC 25 January 2022
Temperature: -1.0°C (30°F)
Dewpoint: -1.0°C (30°F) [RH = 100%]
Pressure (altimeter): 30.53 inches Hg (1034.0 mb)
Winds: from the E (90 degrees) at 3 MPH (3 knots; 1.5 m/s)
Visibility: 0.81 miles (1.30 km)
Ceiling: 2000 feet AGL
Clouds: scattered clouds at 300 feet AGL
broken clouds at 2000 feet AGL
Weather: BR  (mist)

METAR text: EBFN 250822Z 09003KT 1300 BR SCT003 BKN020 M01/M01 Q1034 AMB AMB TEMPO RED
Conditions at: EBFN (KOKSIJDE (BEL-AF, BE) observed 0822 UTC 25 January 2022
Temperature: -1.0°C (30°F)
Dewpoint: -1.0°C (30°F) [RH = 100%]
Pressure (altimeter): 30.53 inches Hg (1034.0 mb)
Winds: from the E (90 degrees) at 3 MPH (3 knots; 1.5 m/s)
Visibility: 0.81 miles (1.30 km)
Ceiling: 2000 feet AGL
Clouds: scattered clouds at 300 feet AGL
broken clouds at 2000 feet AGL
Weather: BR  (mist)

METAR text: EBFN 250808Z 09004KT 1300 BR FEW003 BKN020 M01/M01 Q1034 AMB AMB BECMG RED
Conditions at: EBFN (KOKSIJDE (BEL-AF, BE) observed 0808 UTC 25 January 2022
Temperature: -1.0°C (30°F)
Dewpoint: -1.0°C (30°F) [RH = 100%]
Pressure (altimeter): 30.53 inches Hg (1034.0 mb)
Winds: from the E (90 degrees) at 5 MPH (4 knots; 2.1 m/s)
Visibility: 0.81 miles (1.30 km)
Ceiling: 2000 feet AGL
Clouds: few clouds at 300 feet AGL
broken clouds at 2000 feet AGL
Weather: BR  (mist)

METAR text: EBFN 250803Z 09005KT 1600 BR FEW003 BKN020 M01/M01 Q1034 YLO AMB BECMG RED
Conditions at: EBFN (KOKSIJDE (BEL-AF, BE) observed 0803 UTC 25 January 2022
Temperature: -1.0°C (30°F)
Dewpoint: -1.0°C (30°F) [RH = 100%]
Pressure (altimeter): 30.53 inches Hg (1034.0 mb)
Winds: from the E (90 degrees) at 6 MPH (5 knots; 2.6 m/s)
Visibility: 0.99 miles (1.59 km)
Ceiling: 2000 feet AGL
Clouds: few clouds at 300 feet AGL
broken clouds at 2000 feet AGL
Weather: BR  (mist)

METAR text: EBFN 250755Z 08005KT 2000 BR SCT020 M01/M01 Q1034 YLO AMB BECMG RED
Conditions at: EBFN (KOKSIJDE (BEL-AF, BE) observed 0755 UTC 25 January 2022
Temperature: -1.0°C (30°F)
Dewpoint: -1.0°C (30°F) [RH = 100%]
Pressure (altimeter): 30.53 inches Hg (1034.0 mb)
Winds: from the E (80 degrees) at 6 MPH (5 knots; 2.6 m/s)
Visibility: 1.24 miles (2.00 km)
Ceiling: at least 12,000 feet AGL
Clouds: scattered clouds at 2000 feet AGL
Weather: BR  (mist)

Forecast for: EBFN (KOKSIJDE (BEL-AF, BE)
Text: TAF EBFN 250541Z 2507/2516 09003KT 1500 BR SCT002
Forecast period: 0700 to 1000 UTC 25 January 2022
Forecast type: FROM: standard forecast or significant change
Winds: from the E (90 degrees) at 3 MPH (3 knots; 1.5 m/s)
Visibility: 0.93 miles (1.50 km)
Ceiling: at least 12,000 feet AGL
Clouds: scattered clouds at 200 feet AGL
Weather: BR  (mist)
Text: TEMPO 2507/2510 VRB02KT 1000 BR SCT001
Forecast period: 0700 to 1000 UTC 25 January 2022
Forecast type: TEMPORARY: The following changes expected for less than half the time period
Winds: variable direction winds at 2 MPH (2 knots; 1.0 m/s)
Visibility: 0.62 miles (1.00 km)
Ceiling: at least 12,000 feet AGL
Clouds: scattered clouds at 100 feet AGL
Weather: BR  (mist)
Text: BECMG 2510/2512 06003KT 4000 BR BKN003
Forecast period: 1000 to 1600 UTC 25 January 2022
Forecast type: BECOMING: Conditions expected to become as follows by 1200 UTC 25 January 2022
Winds: from the ENE (60 degrees) at 3 MPH (3 knots; 1.5 m/s)
Visibility: 2.49 miles (4.01 km)
Ceiling: 300 feet AGL
Clouds: broken clouds at 300 feet AGL
Weather: BR  (mist)
Text: TEMPO 2512/2516 6000 NSW BKN003 BY EBWM
Forecast period: 1200 to 1600 UTC 25 January 2022
Forecast type: TEMPORARY: The following changes expected for less than half the time period
Visibility: 4 miles (6 km)
Ceiling: 300 feet AGL
Clouds: broken clouds at 300 feet AGL
Weather: NSW  (no significant weather)

 AIRPORT MAP

 RUNWAY INFORMATION
Runway 11 Runway length 8786 ft Runway width 164 ft
Runway elevation 14 ft Runway displaced threshold 1526 ft Runway heading 108
Runway 29 Runway length 8786 ft Runway width 164 ft
Runway elevation 20 ft Runway displaced threshold 311 ft Runway heading 288

 AIRPORT FREQUENCIES
Type APP Name APP Frequency 122.5 MHZ
Type EMR Name SAR Frequency 123.1 MHZ
Type EMR Name SAR Frequency 568 MHZ
Type GND Name TAXI Frequency 122.1 MHZ
Type INFO Name BELGA INFO Frequency 129.325 MHZ
Type TWR Name TWR Frequency 122.1 MHZ

 AIRPORT NEAR NAVIGATION AIDS
Type VORTAC Name Koksy Frequency 114500 KHZ